sensor_id;sensor_type;location;lat;lon;timestamp;temperature;humidity
67379;DHT22;54262;44.642;-0.974;2023-05-20T00:00:31;12.80;99.90
67379;DHT22;54262;44.642;-0.974;2023-05-20T00:02:56;12.70;99.90
67379;DHT22;54262;44.642;-0.974;2023-05-20T00:05:24;12.70;99.90
67379;DHT22;54262;44.642;-0.974;2023-05-20T00:07:50;12.80;99.90
67379;DHT22;54262;44.642;-0.974;2023-05-20T00:10:15;12.70;99.90
67379;DHT22;54262;44.642;-0.974;2023-05-20T00:12:41;12.60;99.90
67379;DHT22;54262;44.642;-0.974;2023-05-20T00:15:07;12.50;99.90
67379;DHT22;54262;44.642;-0.974;2023-05-20T00:17:33;12.60;99.90
67379;DHT22;54262;44.642;-0.974;2023-05-20T00:19:58;12.60;99.90
67379;DHT22;54262;44.642;-0.974;2023-05-20T00:22:25;12.50;99.90
67379;DHT22;54262;44.642;-0.974;2023-05-20T00:24:50;12.80;99.90
67379;DHT22;54262;44.642;-0.974;2023-05-20T00:27:16;12.70;99.90
67379;DHT22;54262;44.642;-0.974;2023-05-20T00:29:42;12.60;99.90
67379;DHT22;54262;44.642;-0.974;2023-05-20T00:32:07;12.60;99.90
67379;DHT22;54262;44.642;-0.974;2023-05-20T00:34:35;12.60;99.90
67379;DHT22;54262;44.642;-0.974;2023-05-20T00:37:01;12.50;99.90
67379;DHT22;54262;44.642;-0.974;2023-05-20T00:39:26;12.50;99.90
67379;DHT22;54262;44.642;-0.974;2023-05-20T00:41:54;12.50;99.90
67379;DHT22;54262;44.642;-0.974;2023-05-20T00:44:21;12.60;99.90
67379;DHT22;54262;44.642;-0.974;2023-05-20T00:46:49;12.40;99.90
67379;DHT22;54262;44.642;-0.974;2023-05-20T00:49:14;12.40;99.90
67379;DHT22;54262;44.642;-0.974;2023-05-20T00:51:40;12.30;99.90
67379;DHT22;54262;44.642;-0.974;2023-05-20T00:54:06;12.30;99.90
67379;DHT22;54262;44.642;-0.974;2023-05-20T00:56:32;12.30;99.90
67379;DHT22;54262;44.642;-0.974;2023-05-20T00:58:57;12.20;99.90
67379;DHT22;54262;44.642;-0.974;2023-05-20T01:01:23;12.30;99.90
67379;DHT22;54262;44.642;-0.974;2023-05-20T01:03:49;12.20;99.90
67379;DHT22;54262;44.642;-0.974;2023-05-20T01:06:15;12.20;99.90
67379;DHT22;54262;44.642;-0.974;2023-05-20T01:08:41;12.10;99.90
67379;DHT22;54262;44.642;-0.974;2023-05-20T01:11:25;12.20;99.90
67379;DHT22;54262;44.642;-0.974;2023-05-20T01:13:56;12.20;99.90
67379;DHT22;54262;44.642;-0.974;2023-05-20T01:16:25;12.10;99.90
67379;DHT22;54262;44.642;-0.974;2023-05-20T01:18:54;12.00;99.90
67379;DHT22;54262;44.642;-0.974;2023-05-20T01:21:22;12.00;99.90
67379;DHT22;54262;44.642;-0.974;2023-05-20T01:23:47;11.90;99.90
67379;DHT22;54262;44.642;-0.974;2023-05-20T01:26:13;12.00;99.90
67379;DHT22;54262;44.642;-0.974;2023-05-20T01:28:41;11.90;99.90
67379;DHT22;54262;44.642;-0.974;2023-05-20T01:31:14;11.90;99.90
67379;DHT22;54262;44.642;-0.974;2023-05-20T01:33:44;12.00;99.90
67379;DHT22;54262;44.642;-0.974;2023-05-20T01:36:12;11.90;99.90
67379;DHT22;54262;44.642;-0.974;2023-05-20T01:38:39;11.80;99.90
67379;DHT22;54262;44.642;-0.974;2023-05-20T01:41:06;11.80;99.90
67379;DHT22;54262;44.642;-0.974;2023-05-20T01:43:34;11.70;99.90
67379;DHT22;54262;44.642;-0.974;2023-05-20T01:46:00;11.70;99.90
67379;DHT22;54262;44.642;-0.974;2023-05-20T01:48:27;11.60;99.90
67379;DHT22;54262;44.642;-0.974;2023-05-20T01:50:52;11.70;99.90
67379;DHT22;54262;44.642;-0.974;2023-05-20T01:53:18;11.60;99.90
67379;DHT22;54262;44.642;-0.974;2023-05-20T01:55:44;11.60;99.90
67379;DHT22;54262;44.642;-0.974;2023-05-20T01:58:09;11.50;99.90
67379;DHT22;54262;44.642;-0.974;2023-05-20T02:00:35;11.40;99.90
67379;DHT22;54262;44.642;-0.974;2023-05-20T02:03:01;11.40;99.90
67379;DHT22;54262;44.642;-0.974;2023-05-20T02:05:28;11.50;99.90
67379;DHT22;54262;44.642;-0.974;2023-05-20T02:07:54;11.40;99.90
67379;DHT22;54262;44.642;-0.974;2023-05-20T02:10:19;11.50;99.90
67379;DHT22;54262;44.642;-0.974;2023-05-20T02:12:45;11.40;99.90
67379;DHT22;54262;44.642;-0.974;2023-05-20T02:15:12;11.40;99.90
67379;DHT22;54262;44.642;-0.974;2023-05-20T02:17:38;11.40;99.90
67379;DHT22;54262;44.642;-0.974;2023-05-20T02:20:05;11.40;99.90
67379;DHT22;54262;44.642;-0.974;2023-05-20T02:22:32;11.40;99.90
67379;DHT22;54262;44.642;-0.974;2023-05-20T02:24:57;11.30;99.90
67379;DHT22;54262;44.642;-0.974;2023-05-20T02:27:23;11.20;99.90
67379;DHT22;54262;44.642;-0.974;2023-05-20T02:29:48;11.20;99.90
67379;DHT22;54262;44.642;-0.974;2023-05-20T02:32:14;11.20;99.90
67379;DHT22;54262;44.642;-0.974;2023-05-20T02:34:40;11.10;99.90
67379;DHT22;54262;44.642;-0.974;2023-05-20T02:37:08;11.10;99.90
67379;DHT22;54262;44.642;-0.974;2023-05-20T02:39:33;11.00;99.90
67379;DHT22;54262;44.642;-0.974;2023-05-20T02:41:59;11.00;99.90
67379;DHT22;54262;44.642;-0.974;2023-05-20T02:44:27;11.00;99.90
67379;DHT22;54262;44.642;-0.974;2023-05-20T02:46:52;11.00;99.90
67379;DHT22;54262;44.642;-0.974;2023-05-20T02:49:18;10.90;99.90
67379;DHT22;54262;44.642;-0.974;2023-05-20T02:51:44;10.90;99.90
67379;DHT22;54262;44.642;-0.974;2023-05-20T02:54:09;10.80;99.90
67379;DHT22;54262;44.642;-0.974;2023-05-20T02:56:35;10.80;99.90
67379;DHT22;54262;44.642;-0.974;2023-05-20T02:59:01;10.70;99.90
67379;DHT22;54262;44.642;-0.974;2023-05-20T03:01:28;10.70;99.90
67379;DHT22;54262;44.642;-0.974;2023-05-20T03:03:53;10.70;99.90
67379;DHT22;54262;44.642;-0.974;2023-05-20T03:06:19;10.70;99.90
67379;DHT22;54262;44.642;-0.974;2023-05-20T03:08:45;10.70;99.90
67379;DHT22;54262;44.642;-0.974;2023-05-20T03:11:10;10.70;99.90
67379;DHT22;54262;44.642;-0.974;2023-05-20T03:13:36;10.70;99.90
67379;DHT22;54262;44.642;-0.974;2023-05-20T03:16:02;10.70;99.90
67379;DHT22;54262;44.642;-0.974;2023-05-20T03:18:27;10.70;99.90
67379;DHT22;54262;44.642;-0.974;2023-05-20T03:20:53;10.70;99.90
67379;DHT22;54262;44.642;-0.974;2023-05-20T03:23:19;10.60;99.90
67379;DHT22;54262;44.642;-0.974;2023-05-20T03:25:45;10.60;99.90
67379;DHT22;54262;44.642;-0.974;2023-05-20T03:28:11;10.60;99.90
67379;DHT22;54262;44.642;-0.974;2023-05-20T03:30:37;10.60;99.90
67379;DHT22;54262;44.642;-0.974;2023-05-20T03:33:03;10.50;99.90
67379;DHT22;54262;44.642;-0.974;2023-05-20T03:35:30;10.50;99.90
67379;DHT22;54262;44.642;-0.974;2023-05-20T03:37:58;10.50;99.90
67379;DHT22;54262;44.642;-0.974;2023-05-20T03:40:26;10.50;99.90
67379;DHT22;54262;44.642;-0.974;2023-05-20T03:42:51;10.40;99.90
67379;DHT22;54262;44.642;-0.974;2023-05-20T03:45:19;10.40;99.90
67379;DHT22;54262;44.642;-0.974;2023-05-20T03:47:45;10.40;99.90
67379;DHT22;54262;44.642;-0.974;2023-05-20T03:50:11;10.40;99.90
67379;DHT22;54262;44.642;-0.974;2023-05-20T03:52:36;10.40;99.90
67379;DHT22;54262;44.642;-0.974;2023-05-20T03:55:02;10.30;99.90
67379;DHT22;54262;44.642;-0.974;2023-05-20T03:57:28;10.30;99.90
67379;DHT22;54262;44.642;-0.974;2023-05-20T03:59:54;10.20;99.90
67379;DHT22;54262;44.642;-0.974;2023-05-20T04:02:20;10.10;99.90
67379;DHT22;54262;44.642;-0.974;2023-05-20T04:04:46;10.20;99.90
67379;DHT22;54262;44.642;-0.974;2023-05-20T04:07:11;10.10;99.90
67379;DHT22;54262;44.642;-0.974;2023-05-20T04:09:37;10.10;99.90
67379;DHT22;54262;44.642;-0.974;2023-05-20T04:12:04;10.10;99.90
67379;DHT22;54262;44.642;-0.974;2023-05-20T04:14:30;10.00;99.90
67379;DHT22;54262;44.642;-0.974;2023-05-20T04:17:01;9.90;99.90
67379;DHT22;54262;44.642;-0.974;2023-05-20T04:19:26;9.90;99.90
67379;DHT22;54262;44.642;-0.974;2023-05-20T04:21:52;9.90;99.90
67379;DHT22;54262;44.642;-0.974;2023-05-20T04:24:18;9.90;99.90
67379;DHT22;54262;44.642;-0.974;2023-05-20T04:26:44;9.80;99.90
67379;DHT22;54262;44.642;-0.974;2023-05-20T04:29:10;9.80;99.90
67379;DHT22;54262;44.642;-0.974;2023-05-20T04:31:36;9.80;99.90
67379;DHT22;54262;44.642;-0.974;2023-05-20T04:34:02;9.80;99.90
67379;DHT22;54262;44.642;-0.974;2023-05-20T04:36:29;9.80;99.90
67379;DHT22;54262;44.642;-0.974;2023-05-20T04:38:57;9.80;99.90
67379;DHT22;54262;44.642;-0.974;2023-05-20T04:41:23;9.80;99.90
67379;DHT22;54262;44.642;-0.974;2023-05-20T04:43:48;9.80;99.90
67379;DHT22;54262;44.642;-0.974;2023-05-20T04:46:16;9.80;99.90
67379;DHT22;54262;44.642;-0.974;2023-05-20T04:48:42;9.90;99.90
67379;DHT22;54262;44.642;-0.974;2023-05-20T04:51:12;9.90;99.90
67379;DHT22;54262;44.642;-0.974;2023-05-20T04:53:38;9.90;99.90
67379;DHT22;54262;44.642;-0.974;2023-05-20T04:56:04;10.00;99.90
67379;DHT22;54262;44.642;-0.974;2023-05-20T04:58:30;9.90;99.90
67379;DHT22;54262;44.642;-0.974;2023-05-20T05:00:57;9.90;99.90
67379;DHT22;54262;44.642;-0.974;2023-05-20T05:03:23;10.00;99.90
67379;DHT22;54262;44.642;-0.974;2023-05-20T05:05:49;10.10;99.90
67379;DHT22;54262;44.642;-0.974;2023-05-20T05:08:14;10.20;99.90
67379;DHT22;54262;44.642;-0.974;2023-05-20T05:10:41;10.30;99.90
67379;DHT22;54262;44.642;-0.974;2023-05-20T05:13:07;10.20;99.90
67379;DHT22;54262;44.642;-0.974;2023-05-20T05:15:32;10.30;99.90
67379;DHT22;54262;44.642;-0.974;2023-05-20T05:17:58;10.30;99.90
67379;DHT22;54262;44.642;-0.974;2023-05-20T05:20:24;10.30;99.90
67379;DHT22;54262;44.642;-0.974;2023-05-20T05:22:49;10.40;99.90
67379;DHT22;54262;44.642;-0.974;2023-05-20T05:25:15;10.50;99.90
67379;DHT22;54262;44.642;-0.974;2023-05-20T05:27:41;10.40;99.90
67379;DHT22;54262;44.642;-0.974;2023-05-20T05:30:07;10.40;99.90
67379;DHT22;54262;44.642;-0.974;2023-05-20T05:32:33;10.40;99.90
67379;DHT22;54262;44.642;-0.974;2023-05-20T05:34:59;10.50;99.90
67379;DHT22;54262;44.642;-0.974;2023-05-20T05:37:25;10.50;99.90
67379;DHT22;54262;44.642;-0.974;2023-05-20T05:39:53;10.60;99.90
67379;DHT22;54262;44.642;-0.974;2023-05-20T05:42:18;10.70;99.90
67379;DHT22;54262;44.642;-0.974;2023-05-20T05:44:44;10.80;99.90
67379;DHT22;54262;44.642;-0.974;2023-05-20T05:47:12;10.80;99.90
67379;DHT22;54262;44.642;-0.974;2023-05-20T05:49:38;10.90;99.90
67379;DHT22;54262;44.642;-0.974;2023-05-20T05:52:03;11.10;99.90
67379;DHT22;54262;44.642;-0.974;2023-05-20T05:54:29;11.10;99.90
67379;DHT22;54262;44.642;-0.974;2023-05-20T05:56:55;11.30;99.90
67379;DHT22;54262;44.642;-0.974;2023-05-20T05:59:21;11.40;99.90
67379;DHT22;54262;44.642;-0.974;2023-05-20T06:01:47;11.50;99.90
67379;DHT22;54262;44.642;-0.974;2023-05-20T06:04:13;11.50;99.90
67379;DHT22;54262;44.642;-0.974;2023-05-20T06:06:39;11.60;99.90
67379;DHT22;54262;44.642;-0.974;2023-05-20T06:09:05;11.80;99.90
67379;DHT22;54262;44.642;-0.974;2023-05-20T06:11:31;12.00;99.90
67379;DHT22;54262;44.642;-0.974;2023-05-20T06:13:57;12.50;99.90
67379;DHT22;54262;44.642;-0.974;2023-05-20T06:16:23;13.00;99.90
67379;DHT22;54262;44.642;-0.974;2023-05-20T06:18:48;13.00;99.90
67379;DHT22;54262;44.642;-0.974;2023-05-20T06:21:15;13.30;99.90
67379;DHT22;54262;44.642;-0.974;2023-05-20T06:23:41;13.50;99.90
67379;DHT22;54262;44.642;-0.974;2023-05-20T06:26:06;13.60;99.90
67379;DHT22;54262;44.642;-0.974;2023-05-20T06:28:32;14.00;99.90
67379;DHT22;54262;44.642;-0.974;2023-05-20T06:30:58;14.30;99.90
67379;DHT22;54262;44.642;-0.974;2023-05-20T06:33:25;14.10;99.90
67379;DHT22;54262;44.642;-0.974;2023-05-20T06:35:52;14.30;99.90
67379;DHT22;54262;44.642;-0.974;2023-05-20T06:38:18;14.20;99.90
67379;DHT22;54262;44.642;-0.974;2023-05-20T06:40:47;14.50;99.90
67379;DHT22;54262;44.642;-0.974;2023-05-20T06:43:16;14.40;99.90
67379;DHT22;54262;44.642;-0.974;2023-05-20T06:45:42;14.50;99.90
67379;DHT22;54262;44.642;-0.974;2023-05-20T06:48:10;14.40;99.90
67379;DHT22;54262;44.642;-0.974;2023-05-20T06:50:36;14.70;99.90
67379;DHT22;54262;44.642;-0.974;2023-05-20T06:53:02;14.80;99.90
67379;DHT22;54262;44.642;-0.974;2023-05-20T06:55:29;14.70;99.90
67379;DHT22;54262;44.642;-0.974;2023-05-20T06:57:54;15.30;99.90
67379;DHT22;54262;44.642;-0.974;2023-05-20T07:00:20;15.50;99.90
67379;DHT22;54262;44.642;-0.974;2023-05-20T07:02:46;15.80;98.30
67379;DHT22;54262;44.642;-0.974;2023-05-20T07:05:11;15.90;98.70
67379;DHT22;54262;44.642;-0.974;2023-05-20T07:07:37;15.60;99.90
67379;DHT22;54262;44.642;-0.974;2023-05-20T07:10:04;15.80;99.00
67379;DHT22;54262;44.642;-0.974;2023-05-20T07:12:33;16.20;97.70
67379;DHT22;54262;44.642;-0.974;2023-05-20T07:14:58;16.20;94.60
67379;DHT22;54262;44.642;-0.974;2023-05-20T07:17:24;15.90;99.90
67379;DHT22;54262;44.642;-0.974;2023-05-20T07:19:51;16.20;97.80
67379;DHT22;54262;44.642;-0.974;2023-05-20T07:22:16;16.20;94.40
67379;DHT22;54262;44.642;-0.974;2023-05-20T07:24:42;16.30;95.50
67379;DHT22;54262;44.642;-0.974;2023-05-20T07:27:08;17.10;92.80
67379;DHT22;54262;44.642;-0.974;2023-05-20T07:29:35;16.70;91.90
67379;DHT22;54262;44.642;-0.974;2023-05-20T07:32:01;17.00;97.60
67379;DHT22;54262;44.642;-0.974;2023-05-20T07:34:27;17.60;86.60
67379;DHT22;54262;44.642;-0.974;2023-05-20T07:36:52;17.10;87.70
67379;DHT22;54262;44.642;-0.974;2023-05-20T07:39:18;16.60;91.30
67379;DHT22;54262;44.642;-0.974;2023-05-20T07:41:46;16.70;93.80
67379;DHT22;54262;44.642;-0.974;2023-05-20T07:44:12;16.70;93.00
67379;DHT22;54262;44.642;-0.974;2023-05-20T07:46:38;16.70;90.70
67379;DHT22;54262;44.642;-0.974;2023-05-20T07:49:07;16.40;94.40
67379;DHT22;54262;44.642;-0.974;2023-05-20T07:51:32;16.10;94.40
67379;DHT22;54262;44.642;-0.974;2023-05-20T07:53:58;16.10;96.40
67379;DHT22;54262;44.642;-0.974;2023-05-20T07:56:23;16.10;97.70
67379;DHT22;54262;44.642;-0.974;2023-05-20T07:58:57;16.10;93.30
67379;DHT22;54262;44.642;-0.974;2023-05-20T08:01:23;16.00;95.80
67379;DHT22;54262;44.642;-0.974;2023-05-20T08:03:49;16.10;97.60
67379;DHT22;54262;44.642;-0.974;2023-05-20T08:06:15;16.20;96.60
67379;DHT22;54262;44.642;-0.974;2023-05-20T08:08:41;16.20;95.60
67379;DHT22;54262;44.642;-0.974;2023-05-20T08:11:07;16.40;95.80
67379;DHT22;54262;44.642;-0.974;2023-05-20T08:13:33;16.40;95.10
67379;DHT22;54262;44.642;-0.974;2023-05-20T08:16:00;16.40;92.50
67379;DHT22;54262;44.642;-0.974;2023-05-20T08:18:25;16.20;94.00
67379;DHT22;54262;44.642;-0.974;2023-05-20T08:20:52;16.10;95.00
67379;DHT22;54262;44.642;-0.974;2023-05-20T08:23:17;16.10;95.60
67379;DHT22;54262;44.642;-0.974;2023-05-20T08:25:43;16.10;95.80
67379;DHT22;54262;44.642;-0.974;2023-05-20T08:28:11;16.30;95.10
67379;DHT22;54262;44.642;-0.974;2023-05-20T08:30:37;16.10;96.00
67379;DHT22;54262;44.642;-0.974;2023-05-20T08:33:02;16.10;97.80
67379;DHT22;54262;44.642;-0.974;2023-05-20T08:35:28;16.10;96.70
67379;DHT22;54262;44.642;-0.974;2023-05-20T08:37:54;16.20;96.50
67379;DHT22;54262;44.642;-0.974;2023-05-20T08:40:20;16.20;94.60
67379;DHT22;54262;44.642;-0.974;2023-05-20T08:42:49;16.10;94.50
67379;DHT22;54262;44.642;-0.974;2023-05-20T08:45:18;16.20;95.30
67379;DHT22;54262;44.642;-0.974;2023-05-20T08:47:45;16.30;96.90
67379;DHT22;54262;44.642;-0.974;2023-05-20T08:50:14;16.30;99.80
67379;DHT22;54262;44.642;-0.974;2023-05-20T08:52:43;16.40;98.40
67379;DHT22;54262;44.642;-0.974;2023-05-20T08:55:16;16.40;98.80
67379;DHT22;54262;44.642;-0.974;2023-05-20T08:57:50;16.30;99.60
67379;DHT22;54262;44.642;-0.974;2023-05-20T09:00:16;16.20;99.90
67379;DHT22;54262;44.642;-0.974;2023-05-20T09:02:44;16.10;96.60
67379;DHT22;54262;44.642;-0.974;2023-05-20T09:05:10;16.10;95.70
67379;DHT22;54262;44.642;-0.974;2023-05-20T09:07:36;16.00;98.40
67379;DHT22;54262;44.642;-0.974;2023-05-20T09:10:02;15.80;98.20
67379;DHT22;54262;44.642;-0.974;2023-05-20T09:12:28;15.80;99.90
67379;DHT22;54262;44.642;-0.974;2023-05-20T09:14:54;15.90;99.90
67379;DHT22;54262;44.642;-0.974;2023-05-20T09:17:23;15.80;99.80
67379;DHT22;54262;44.642;-0.974;2023-05-20T09:19:49;15.70;98.20
67379;DHT22;54262;44.642;-0.974;2023-05-20T09:22:26;15.60;99.40
67379;DHT22;54262;44.642;-0.974;2023-05-20T09:24:52;15.80;98.20
67379;DHT22;54262;44.642;-0.974;2023-05-20T09:27:20;15.90;97.00
67379;DHT22;54262;44.642;-0.974;2023-05-20T09:29:50;16.20;99.90
67379;DHT22;54262;44.642;-0.974;2023-05-20T09:32:17;16.10;98.10
67379;DHT22;54262;44.642;-0.974;2023-05-20T09:34:46;16.40;96.50
67379;DHT22;54262;44.642;-0.974;2023-05-20T09:37:13;16.60;97.50
67379;DHT22;54262;44.642;-0.974;2023-05-20T09:39:53;16.60;95.00
67379;DHT22;54262;44.642;-0.974;2023-05-20T09:42:45;16.50;97.00
67379;DHT22;54262;44.642;-0.974;2023-05-20T09:45:10;16.70;96.40
67379;DHT22;54262;44.642;-0.974;2023-05-20T09:47:39;17.20;93.20
67379;DHT22;54262;44.642;-0.974;2023-05-20T09:50:07;17.30;91.50
67379;DHT22;54262;44.642;-0.974;2023-05-20T09:52:36;17.40;93.90
67379;DHT22;54262;44.642;-0.974;2023-05-20T09:55:04;17.50;90.60
67379;DHT22;54262;44.642;-0.974;2023-05-20T09:57:34;17.70;85.30
67379;DHT22;54262;44.642;-0.974;2023-05-20T10:00:00;17.70;85.10
67379;DHT22;54262;44.642;-0.974;2023-05-20T10:02:27;18.30;87.40
67379;DHT22;54262;44.642;-0.974;2023-05-20T10:04:54;18.00;87.10
67379;DHT22;54262;44.642;-0.974;2023-05-20T10:13:20;17.50;90.70
67379;DHT22;54262;44.642;-0.974;2023-05-20T10:20:48;17.70;90.80
67379;DHT22;54262;44.642;-0.974;2023-05-20T10:23:26;17.80;92.00
67379;DHT22;54262;44.642;-0.974;2023-05-20T10:25:54;17.80;85.50
67379;DHT22;54262;44.642;-0.974;2023-05-20T10:28:49;17.90;87.70
67379;DHT22;54262;44.642;-0.974;2023-05-20T10:31:25;17.90;89.00
67379;DHT22;54262;44.642;-0.974;2023-05-20T10:33:52;17.90;90.00
67379;DHT22;54262;44.642;-0.974;2023-05-20T10:36:22;18.10;87.00
67379;DHT22;54262;44.642;-0.974;2023-05-20T10:38:53;17.80;85.40
67379;DHT22;54262;44.642;-0.974;2023-05-20T10:41:24;17.70;86.00
67379;DHT22;54262;44.642;-0.974;2023-05-20T10:44:04;17.80;86.50
67379;DHT22;54262;44.642;-0.974;2023-05-20T10:46:33;17.90;85.70
67379;DHT22;54262;44.642;-0.974;2023-05-20T10:49:01;17.60;87.60
67379;DHT22;54262;44.642;-0.974;2023-05-20T10:51:28;17.60;87.30
67379;DHT22;54262;44.642;-0.974;2023-05-20T10:53:56;17.70;88.30
67379;DHT22;54262;44.642;-0.974;2023-05-20T10:56:23;17.70;83.90
67379;DHT22;54262;44.642;-0.974;2023-05-20T10:58:50;17.70;83.70
67379;DHT22;54262;44.642;-0.974;2023-05-20T11:01:17;17.50;85.70
67379;DHT22;54262;44.642;-0.974;2023-05-20T11:03:48;17.50;85.80
67379;DHT22;54262;44.642;-0.974;2023-05-20T11:06:17;17.50;84.50
67379;DHT22;54262;44.642;-0.974;2023-05-20T11:08:44;17.40;90.00
67379;DHT22;54262;44.642;-0.974;2023-05-20T11:11:11;17.40;89.80
67379;DHT22;54262;44.642;-0.974;2023-05-20T11:13:37;17.40;87.70
67379;DHT22;54262;44.642;-0.974;2023-05-20T11:16:04;17.30;91.70
67379;DHT22;54262;44.642;-0.974;2023-05-20T11:18:30;17.50;90.10
67379;DHT22;54262;44.642;-0.974;2023-05-20T11:21:00;17.40;91.50
67379;DHT22;54262;44.642;-0.974;2023-05-20T11:23:27;17.60;91.30
67379;DHT22;54262;44.642;-0.974;2023-05-20T11:25:54;17.70;91.80
67379;DHT22;54262;44.642;-0.974;2023-05-20T11:28:21;17.80;88.00
67379;DHT22;54262;44.642;-0.974;2023-05-20T11:30:47;18.00;90.00
67379;DHT22;54262;44.642;-0.974;2023-05-20T11:33:15;18.10;88.00
67379;DHT22;54262;44.642;-0.974;2023-05-20T11:35:46;18.20;87.70
67379;DHT22;54262;44.642;-0.974;2023-05-20T11:38:12;18.10;85.80
67379;DHT22;54262;44.642;-0.974;2023-05-20T11:40:45;18.20;82.50
67379;DHT22;54262;44.642;-0.974;2023-05-20T11:43:13;18.20;82.70
67379;DHT22;54262;44.642;-0.974;2023-05-20T11:45:43;18.20;78.40
67379;DHT22;54262;44.642;-0.974;2023-05-20T11:48:12;18.30;78.50
67379;DHT22;54262;44.642;-0.974;2023-05-20T11:50:41;18.60;77.30
67379;DHT22;54262;44.642;-0.974;2023-05-20T11:53:10;18.80;79.20
67379;DHT22;54262;44.642;-0.974;2023-05-20T11:58:18;19.10;76.50
67379;DHT22;54262;44.642;-0.974;2023-05-20T12:00:45;19.10;77.20
67379;DHT22;54262;44.642;-0.974;2023-05-20T12:03:10;19.10;75.70
67379;DHT22;54262;44.642;-0.974;2023-05-20T12:05:37;18.90;71.00
67379;DHT22;54262;44.642;-0.974;2023-05-20T12:08:03;18.60;79.00
67379;DHT22;54262;44.642;-0.974;2023-05-20T12:10:29;18.90;76.00
67379;DHT22;54262;44.642;-0.974;2023-05-20T12:12:56;18.80;70.40
67379;DHT22;54262;44.642;-0.974;2023-05-20T12:15:21;18.80;76.40
67379;DHT22;54262;44.642;-0.974;2023-05-20T12:17:49;19.00;73.50
67379;DHT22;54262;44.642;-0.974;2023-05-20T12:20:16;19.00;70.30
67379;DHT22;54262;44.642;-0.974;2023-05-20T12:22:45;19.00;71.90
67379;DHT22;54262;44.642;-0.974;2023-05-20T12:25:12;19.10;70.50
67379;DHT22;54262;44.642;-0.974;2023-05-20T12:27:39;19.00;70.10
67379;DHT22;54262;44.642;-0.974;2023-05-20T12:30:05;18.90;74.40
67379;DHT22;54262;44.642;-0.974;2023-05-20T12:32:32;19.20;74.00
67379;DHT22;54262;44.642;-0.974;2023-05-20T12:34:57;19.40;69.50
67379;DHT22;54262;44.642;-0.974;2023-05-20T12:37:23;19.40;69.30
67379;DHT22;54262;44.642;-0.974;2023-05-20T12:39:48;19.30;70.80
67379;DHT22;54262;44.642;-0.974;2023-05-20T12:42:14;19.50;66.60
67379;DHT22;54262;44.642;-0.974;2023-05-20T12:44:40;19.30;68.80
67379;DHT22;54262;44.642;-0.974;2023-05-20T12:47:06;19.50;64.40
67379;DHT22;54262;44.642;-0.974;2023-05-20T12:49:34;19.40;69.50
67379;DHT22;54262;44.642;-0.974;2023-05-20T12:51:59;19.30;67.10
67379;DHT22;54262;44.642;-0.974;2023-05-20T12:54:25;19.40;63.90
67379;DHT22;54262;44.642;-0.974;2023-05-20T12:56:53;19.40;69.50
67379;DHT22;54262;44.642;-0.974;2023-05-20T12:59:20;19.30;66.20
67379;DHT22;54262;44.642;-0.974;2023-05-20T13:01:45;19.40;65.10
67379;DHT22;54262;44.642;-0.974;2023-05-20T13:04:11;19.40;66.90
67379;DHT22;54262;44.642;-0.974;2023-05-20T13:06:37;19.60;64.70
67379;DHT22;54262;44.642;-0.974;2023-05-20T13:09:02;19.70;63.70
67379;DHT22;54262;44.642;-0.974;2023-05-20T13:11:28;19.50;65.70
67379;DHT22;54262;44.642;-0.974;2023-05-20T13:13:54;19.60;66.40
67379;DHT22;54262;44.642;-0.974;2023-05-20T13:16:23;19.80;68.30
67379;DHT22;54262;44.642;-0.974;2023-05-20T13:18:49;19.80;65.10
67379;DHT22;54262;44.642;-0.974;2023-05-20T13:21:16;19.80;68.20
67379;DHT22;54262;44.642;-0.974;2023-05-20T13:23:41;19.80;68.80
67379;DHT22;54262;44.642;-0.974;2023-05-20T13:26:08;19.60;67.00
67379;DHT22;54262;44.642;-0.974;2023-05-20T13:28:34;19.40;66.50
67379;DHT22;54262;44.642;-0.974;2023-05-20T13:31:04;19.50;70.00
67379;DHT22;54262;44.642;-0.974;2023-05-20T13:33:30;19.60;70.30
67379;DHT22;54262;44.642;-0.974;2023-05-20T13:35:56;19.70;71.20
67379;DHT22;54262;44.642;-0.974;2023-05-20T13:38:21;19.80;70.30
67379;DHT22;54262;44.642;-0.974;2023-05-20T13:40:47;19.70;72.50
67379;DHT22;54262;44.642;-0.974;2023-05-20T13:43:14;19.70;71.60
67379;DHT22;54262;44.642;-0.974;2023-05-20T13:45:41;19.90;69.70
67379;DHT22;54262;44.642;-0.974;2023-05-20T13:48:06;19.80;75.50
67379;DHT22;54262;44.642;-0.974;2023-05-20T13:50:34;19.70;72.70
67379;DHT22;54262;44.642;-0.974;2023-05-20T13:53:00;19.50;76.90
67379;DHT22;54262;44.642;-0.974;2023-05-20T13:55:26;19.60;73.50
67379;DHT22;54262;44.642;-0.974;2023-05-20T13:57:53;19.70;72.80
67379;DHT22;54262;44.642;-0.974;2023-05-20T14:00:20;19.70;73.00
67379;DHT22;54262;44.642;-0.974;2023-05-20T14:02:46;19.70;73.90
67379;DHT22;54262;44.642;-0.974;2023-05-20T14:05:12;19.60;74.60
67379;DHT22;54262;44.642;-0.974;2023-05-20T14:07:38;19.70;75.80
67379;DHT22;54262;44.642;-0.974;2023-05-20T14:10:04;19.80;82.30
67379;DHT22;54262;44.642;-0.974;2023-05-20T14:12:30;20.20;83.00
67379;DHT22;54262;44.642;-0.974;2023-05-20T14:14:56;20.70;70.90
67379;DHT22;54262;44.642;-0.974;2023-05-20T14:17:22;20.50;72.60
67379;DHT22;54262;44.642;-0.974;2023-05-20T14:19:47;20.30;71.80
67379;DHT22;54262;44.642;-0.974;2023-05-20T14:22:13;20.20;73.30
67379;DHT22;54262;44.642;-0.974;2023-05-20T14:24:40;20.20;72.80
67379;DHT22;54262;44.642;-0.974;2023-05-20T14:27:05;20.10;74.00
67379;DHT22;54262;44.642;-0.974;2023-05-20T14:29:31;20.30;83.50
67379;DHT22;54262;44.642;-0.974;2023-05-20T14:31:57;20.10;75.60
67379;DHT22;54262;44.642;-0.974;2023-05-20T14:34:22;20.10;76.00
67379;DHT22;54262;44.642;-0.974;2023-05-20T14:36:48;20.10;75.80
67379;DHT22;54262;44.642;-0.974;2023-05-20T14:39:14;20.10;77.00
67379;DHT22;54262;44.642;-0.974;2023-05-20T14:41:39;20.20;75.50
67379;DHT22;54262;44.642;-0.974;2023-05-20T14:44:05;20.20;90.50
67379;DHT22;54262;44.642;-0.974;2023-05-20T14:46:31;20.20;77.20
67379;DHT22;54262;44.642;-0.974;2023-05-20T14:48:56;20.20;79.30
67379;DHT22;54262;44.642;-0.974;2023-05-20T14:51:25;20.10;77.80
67379;DHT22;54262;44.642;-0.974;2023-05-20T14:53:50;20.10;78.20
67379;DHT22;54262;44.642;-0.974;2023-05-20T14:56:16;20.10;78.30
67379;DHT22;54262;44.642;-0.974;2023-05-20T14:58:44;20.00;81.00
67379;DHT22;54262;44.642;-0.974;2023-05-20T15:01:09;19.80;92.60
67379;DHT22;54262;44.642;-0.974;2023-05-20T15:03:35;19.90;91.70
67379;DHT22;54262;44.642;-0.974;2023-05-20T15:06:01;19.80;83.90
67379;DHT22;54262;44.642;-0.974;2023-05-20T15:08:27;19.80;86.50
67379;DHT22;54262;44.642;-0.974;2023-05-20T15:10:52;19.60;98.80
67379;DHT22;54262;44.642;-0.974;2023-05-20T15:13:18;19.50;92.20
67379;DHT22;54262;44.642;-0.974;2023-05-20T15:15:44;19.40;94.50
67379;DHT22;54262;44.642;-0.974;2023-05-20T15:18:10;19.60;93.80
67379;DHT22;54262;44.642;-0.974;2023-05-20T15:20:35;19.30;99.90
67379;DHT22;54262;44.642;-0.974;2023-05-20T15:23:01;19.20;99.90
67379;DHT22;54262;44.642;-0.974;2023-05-20T15:25:28;18.90;99.90
67379;DHT22;54262;44.642;-0.974;2023-05-20T15:27:53;18.30;99.90